This is the latest recevied weather packets stored in our database for station/object WMKA. If no packets are shown the sender has not sent any weather packets the latest 10 day(s).
| Time | Temp. | Humidity | Pressure | Rain* | Wind** | Luminosity | Snow |
|---|---|---|---|---|---|---|---|
| 1777439385 | 32.78° C | 66% | 1009 hPa | - | - | - | - |
| 1777435785 | 32.78° C | 66% | 1010 hPa | - | - | - | - |
| 1777432185 | 30.56° C | 74% | 1010 hPa | - | - | - | - |
| 1777428591 | 30° C | 74% | 1010 hPa | - | - | - | - |
| 1777424984 | 27.78° C | 83% | 1010 hPa | - | - | - | - |
| 1777421384 | 25.56° C | 94% | 1009 hPa | - | - | - | - |
| 1777417789 | 25.56° C | 88% | 1008 hPa | - | - | - | - |
| 1777414190 | 25.56° C | 88% | 1008 hPa | - | - | - | - |
| 1777410584 | 26.67° C | 88% | 1007 hPa | - | - | - | - |
| 1777406984 | 26.67° C | 88% | 1008 hPa | - | - | - | - |
| 1777403387 | 26.67° C | 88% | 1008 hPa | - | - | - | - |
| 1777399784 | 26.67° C | 88% | 1008 hPa | - | - | - | - |
| 1777396191 | 27.78° C | 83% | 1008 hPa | - | - | - | - |
| 1777392583 | 27.78° C | 83% | 1009 hPa | - | - | - | - |
| 1777388984 | 27.78° C | 83% | 1009 hPa | - | - | - | - |
| 1777385384 | 28.89° C | 79% | 1008 hPa | - | - | - | - |
| 1777381789 | 28.89° C | 79% | 1007 hPa | - | - | - | - |
| 1777378183 | 28.89° C | 74% | 1007 hPa | - | - | - | - |
| 1777374583 | 31.67° C | 66% | 1006 hPa | - | - | - | - |
| 1777370984 | 32.78° C | 66% | 1004 hPa | - | - | - | - |
| 1777367389 | 33.89° C | 63% | 1005 hPa | - | - | - | - |
| 1777363783 | 35° C | 56% | 1005 hPa | - | - | - | - |
| 1777360183 | 35° C | 63% | 1006 hPa | - | - | - | - |
| 1777356583 | 35° C | 59% | 1007 hPa | - | - | - | - |
| 1777352989 | 33.89° C | 59% | 1008 hPa | - | - | - | - |
* Rain since midnight (hover to see other rain measurements)
** Current wind speed in m/s (hover to see current wind gust speed)